Time;durP1;ratioP1;P1;durP2;ratioP2;P2;SDS_P1;SDS_P2;PMS_P1;PMS_P2;Temp;Humidity;BMP_temperature;BMP_pressure;BME280_temperature;BME280_humidity;BME280_pressure;Samples;Min_cycle;Max_cycle;Signal;HPM_P1;HPM_P2
2022/08/23 00:02:25;;;;;;;6.00;5.40;;;;;;;19.11;100.00;101697.41;5033005;28;20420;-42
2022/08/23 00:04:54;;;;;;;11.10;6.00;;;;;;;19.10;100.00;101710.09;5033068;28;21038;-41
2022/08/23 00:07:36;;;;;;;6.83;5.70;;;;;;;19.10;100.00;101701.97;5032510;28;20856;-40
2022/08/23 00:10:07;;;;;;;6.20;5.70;;;;;;;19.11;100.00;101695.53;5032438;28;20475;-41
2022/08/23 00:12:35;;;;;;;5.97;5.57;;;;;;;19.13;100.00;101697.97;5032754;28;20439;-41
2022/08/23 00:15:04;;;;;;;6.03;5.53;;;;;;;19.14;99.96;101700.47;5033147;28;20435;-44
2022/08/23 00:17:34;;;;;;;7.67;6.17;;;;;;;19.10;100.00;101710.09;5032767;28;20503;-40
2022/08/23 00:20:02;;;;;;;7.63;6.10;;;;;;;19.12;100.00;101699.03;5032275;28;20466;-41
2022/08/23 00:22:29;;;;;;;6.90;5.93;;;;;;;19.11;100.00;101700.94;5032405;28;20463;-40
2022/08/23 00:24:58;;;;;;;10.00;5.90;;;;;;;19.13;100.00;101700.69;5032524;28;20438;-40
2022/08/23 00:27:27;;;;;;;7.10;5.07;;;;;;;19.13;99.94;101690.69;5032713;28;20460;-41
2022/08/23 00:29:57;;;;;;;8.47;5.87;;;;;;;19.13;99.44;101693.41;5032284;28;20464;-41
2022/08/23 00:32:27;;;;;;;8.30;4.87;;;;;;;19.12;99.10;101688.22;5032180;28;20917;-40
2022/08/23 00:34:55;;;;;;;5.50;5.20;;;;;;;19.10;99.27;101690.34;5032526;28;20447;-40
2022/08/23 00:37:23;;;;;;;6.00;5.40;;;;;;;19.10;98.89;101687.63;5031733;28;20450;-40
2022/08/23 00:39:51;;;;;;;6.40;5.40;;;;;;;19.07;98.86;101688.91;5031897;28;20473;-40
2022/08/23 00:48:08;;;;;;;8.40;5.00;;;;;;;18.98;98.69;101692.16;5032265;28;20926;-40
2022/08/23 00:50:40;;;;;;;10.80;6.03;;;;;;;18.98;98.31;101697.56;5031840;28;20467;-40
2022/08/23 00:53:14;;;;;;;5.30;4.80;;;;;;;18.96;98.55;101700.50;5031820;28;20432;-41
2022/08/23 00:55:46;;;;;;;5.27;4.80;;;;;;;18.97;98.35;101701.31;5012434;28;20444;-40
2022/08/23 00:58:17;;;;;;;6.80;5.03;;;;;;;18.97;98.15;101699.44;5012615;28;20455;-40
2022/08/23 01:00:44;;;;;;;7.53;6.03;;;;;;;18.97;98.14;101704.84;5011776;28;20460;-41
2022/08/23 01:03:13;;;;;;;6.47;5.93;;;;;;;18.94;98.15;101708.00;5012202;28;20432;-41
2022/08/23 01:05:47;;;;;;;6.27;5.67;;;;;;;18.96;98.32;101702.38;5012207;28;20531;-40
2022/08/23 01:08:15;;;;;;;5.37;5.00;;;;;;;18.95;98.10;101698.03;5012092;28;20784;-40
2022/08/23 01:10:49;;;;;;;7.33;5.57;;;;;;;18.93;97.70;101709.09;5011646;28;20475;-40
2022/08/23 01:13:23;;;;;;;5.80;5.40;;;;;;;18.89;97.67;101702.47;5012154;28;20425;-41
2022/08/23 01:15:56;;;;;;;5.87;5.20;;;;;;;18.86;97.42;101704.78;5011956;28;20436;-40
2022/08/23 01:18:26;;;;;;;7.33;4.87;;;;;;;18.81;97.37;101704.66;5012166;28;20428;-40
2022/08/23 01:20:59;;;;;;;8.60;5.30;;;;;;;18.76;97.31;101698.06;5011575;28;20457;-42
2022/08/23 01:23:36;;;;;;;6.30;5.70;;;;;;;18.70;97.61;101698.97;5011989;28;20451;-42
2022/08/23 01:26:06;;;;;;;7.13;6.43;;;;;;;18.66;97.93;101696.97;5012065;28;20447;-40
2022/08/23 01:28:34;;;;;;;5.63;5.23;;;;;;;18.59;98.29;101696.19;5011917;28;20439;-41
2022/08/23 01:31:04;;;;;;;7.60;5.50;;;;;;;18.55;98.43;101700.38;5011461;28;20468;-41
2022/08/23 01:33:33;;;;;;;5.30;4.90;;;;;;;18.48;98.63;101702.34;5011521;28;20432;-42
2022/08/23 01:36:02;;;;;;;7.00;6.30;;;;;;;18.42;98.80;101690.56;5012245;28;20461;-40
2022/08/23 01:38:37;;;;;;;5.70;5.30;;;;;;;18.37;99.07;101700.38;5011700;28;20432;-41
2022/08/23 01:41:06;;;;;;;6.80;6.00;;;;;;;18.29;99.37;101700.66;5011787;28;20447;-40
2022/08/23 01:43:34;;;;;;;6.10;5.50;;;;;;;18.23;99.84;101695.13;5011535;28;20779;-40
2022/08/23 01:46:09;;;;;;;6.53;5.50;;;;;;;18.17;99.99;101701.41;5011524;28;20468;-41
2022/08/23 01:48:38;;;;;;;5.37;4.97;;;;;;;18.13;100.00;101693.97;5012205;28;20483;-40
2022/08/23 01:51:06;;;;;;;8.23;5.70;;;;;;;18.08;100.00;101699.22;5016294;28;20451;-40
2022/08/23 01:53:34;;;;;;;6.33;5.83;;;;;;;18.04;100.00;101698.03;5034990;28;20423;-41
2022/08/23 01:56:04;;;;;;;6.20;5.70;;;;;;;17.99;100.00;101693.28;5035486;28;20827;-41
2022/08/23 01:58:33;;;;;;;8.57;5.53;;;;;;;17.96;100.00;101692.91;5035572;28;20427;-40
2022/08/23 02:01:03;;;;;;;7.77;5.73;;;;;;;17.91;100.00;101698.97;5034899;28;20466;-39
2022/08/23 02:03:32;;;;;;;8.13;6.10;;;;;;;17.88;100.00;101690.50;5035228;28;20416;-40
2022/08/23 02:06:00;;;;;;;8.07;5.70;;;;;;;17.85;100.00;101693.63;5035237;28;20463;-40
2022/08/23 02:11:21;;;;;;;11.23;5.90;;;;;;;17.80;100.00;101690.78;5034379;28;20451;-39
2022/08/23 02:13:50;;;;;;;6.30;5.87;;;;;;;17.76;100.00;101695.78;5035151;28;20428;-40
2022/08/23 02:16:23;;;;;;;9.80;5.90;;;;;;;17.75;100.00;101699.50;5035191;28;20448;-40
2022/08/23 02:18:52;;;;;;;6.80;5.97;;;;;;;17.72;100.00;101689.16;5034548;28;20511;-40
2022/08/23 02:21:19;;;;;;;6.63;6.13;;;;;;;17.70;100.00;101691.28;5033952;28;20439;-40
2022/08/23 02:23:47;;;;;;;7.83;7.13;;;;;;;17.67;100.00;101691.72;5034604;28;20432;-39
2022/08/23 02:26:16;;;;;;;7.50;6.80;;;;;;;17.67;100.00;101694.41;5034977;28;20550;-40
2022/08/23 02:28:44;;;;;;;7.73;6.10;;;;;;;17.65;100.00;101704.59;5034474;28;20436;-39
2022/08/23 02:31:13;;;;;;;6.13;5.63;;;;;;;17.62;100.00;101702.34;5034906;28;20479;-40
2022/08/23 02:33:41;;;;;;;6.70;6.20;;;;;;;17.62;100.00;101702.34;5034466;28;20423;-43
2022/08/23 02:36:08;;;;;;;6.97;6.33;;;;;;;17.61;100.00;101693.41;5034753;28;20459;-40
2022/08/23 02:38:36;;;;;;;6.93;6.37;;;;;;;17.60;100.00;101697.16;5034968;28;20432;-40
2022/08/23 02:41:04;;;;;;;9.43;6.10;;;;;;;17.60;100.00;101686.38;5034297;28;20440;-40
2022/08/23 02:43:36;;;;;;;7.07;6.30;;;;;;;17.59;100.00;101690.09;5034389;28;20431;-40
2022/08/23 02:46:07;;;;;;;7.00;6.40;;;;;;;17.58;100.00;101688.47;5034451;28;20509;-41
2022/08/23 02:48:36;;;;;;;6.93;6.20;;;;;;;17.60;100.00;101688.22;5034336;28;20803;-40
2022/08/23 02:51:06;;;;;;;10.20;6.63;;;;;;;17.62;100.00;101703.13;5034167;28;20482;-39
2022/08/23 02:53:35;;;;;;;5.97;5.47;;;;;;;17.62;100.00;101688.84;5034137;28;20828;-39
2022/08/23 02:56:03;;;;;;;7.53;6.73;;;;;;;17.62;100.00;101692.34;5034253;28;20452;-42
2022/08/23 02:58:32;;;;;;;5.73;5.33;;;;;;;17.65;100.00;101693.81;5034262;28;20437;-39
2022/08/23 03:01:00;;;;;;;6.03;5.60;;;;;;;17.66;100.00;101701.66;5033171;28;20466;-40
2022/08/23 03:03:28;;;;;;;6.37;5.90;;;;;;;17.67;100.00;101699.81;5033906;28;20434;-42
2022/08/23 03:05:59;;;;;;;6.30;5.80;;;;;;;17.69;100.00;101698.53;5034067;28;20456;-40
2022/08/23 03:08:47;;;;;;;6.03;5.37;;;;;;;17.73;100.00;101696.22;5033957;28;20451;-40
2022/08/23 03:11:19;;;;;;;7.20;6.60;;;;;;;17.75;100.00;101693.28;5034184;28;20832;-40
2022/08/23 03:13:49;;;;;;;12.43;7.17;;;;;;;17.76;100.00;101700.34;5033728;28;20442;-40
2022/08/23 03:16:17;;;;;;;10.97;6.67;;;;;;;17.77;100.00;101700.13;5034127;28;20550;-39
2022/08/23 03:18:45;;;;;;;7.03;6.53;;;;;;;17.78;100.00;101699.06;5033398;28;20439;-39
2022/08/23 03:21:13;;;;;;;6.77;5.53;;;;;;;17.82;100.00;101699.47;5033898;28;20439;-42
2022/08/23 03:23:41;;;;;;;7.97;7.20;;;;;;;17.81;100.00;101695.94;5033559;28;20442;-41
2022/08/23 03:26:10;;;;;;;7.73;7.00;;;;;;;17.84;100.00;101691.97;5033578;28;20451;-39
2022/08/23 03:28:40;;;;;;;6.63;6.03;;;;;;;17.84;100.00;101700.88;5033448;28;20436;-39
2022/08/23 03:31:10;;;;;;;9.27;6.40;;;;;;;17.84;100.00;101694.66;5033595;28;20495;-40
2022/08/23 03:33:38;;;;;;;11.70;6.40;;;;;;;17.86;100.00;101701.50;5033466;28;20432;-40
2022/08/23 03:36:08;;;;;;;5.93;5.63;;;;;;;17.89;100.00;101702.94;5033698;28;20817;-39
2022/08/23 03:38:38;;;;;;;12.70;7.40;;;;;;;17.90;100.00;101704.56;5033307;28;20443;-40
2022/08/23 03:41:06;;;;;;;9.27;5.70;;;;;;;17.89;100.00;101703.75;5033359;28;20436;-40
2022/08/23 03:43:34;;;;;;;6.63;5.87;;;;;;;17.92;100.00;101702.50;5033307;28;20428;-39
2022/08/23 03:46:02;;;;;;;9.80;6.73;;;;;;;17.94;100.00;101705.78;5033230;28;21026;-40
2022/08/23 03:48:31;;;;;;;10.67;6.87;;;;;;;17.93;100.00;101702.25;5033438;28;20428;-40
2022/08/23 03:50:59;;;;;;;6.73;6.17;;;;;;;17.97;100.00;101706.19;5032470;28;20864;-40
2022/08/23 03:53:26;;;;;;;6.67;6.27;;;;;;;17.97;100.00;101703.47;5031691;28;20436;-40
2022/08/23 03:55:55;;;;;;;6.93;6.30;;;;;;;17.97;100.00;101711.56;5032996;28;20442;-40
2022/08/23 03:58:24;;;;;;;7.03;6.30;;;;;;;17.97;100.00;101706.19;5033295;28;20436;-40
2022/08/23 04:00:51;;;;;;;6.00;5.60;;;;;;;17.98;100.00;101710.50;5032639;28;20464;-40
2022/08/23 04:03:19;;;;;;;6.20;5.70;;;;;;;18.01;100.00;101703.88;5032848;28;20432;-40
2022/08/23 04:05:48;;;;;;;6.77;6.27;;;;;;;18.03;100.00;101713.41;5033072;28;20448;-40
2022/08/23 04:08:16;;;;;;;6.50;5.90;;;;;;;18.04;100.00;101703.44;5033236;28;20810;-42
2022/08/23 04:10:54;;;;;;;6.37;5.87;;;;;;;18.06;100.00;101714.81;5032242;28;20479;-39
2022/08/23 04:13:23;;;;;;;7.50;6.80;;;;;;;18.05;100.00;101705.06;5032308;28;20486;-41
2022/08/23 04:15:53;;;;;;;7.40;6.33;;;;;;;18.04;100.00;101720.41;5032762;28;20443;-39
2022/08/23 04:18:21;;;;;;;7.00;5.80;;;;;;;18.07;100.00;101714.56;5032592;28;20443;-40
2022/08/23 04:20:51;;;;;;;7.23;6.63;;;;;;;18.10;100.00;101721.41;5032351;28;20853;-42
2022/08/23 04:23:19;;;;;;;8.20;6.70;;;;;;;18.09;100.00;101723.31;5032595;28;20431;-40
2022/08/23 04:25:47;;;;;;;6.97;6.40;;;;;;;18.12;100.00;101714.75;5032618;28;20793;-41
2022/08/23 04:28:14;;;;;;;6.80;6.03;;;;;;;18.14;100.00;101728.84;5032655;28;20435;-40
2022/08/23 04:30:44;;;;;;;7.17;6.50;;;;;;;18.15;100.00;101730.50;5031913;28;20475;-40
2022/08/23 04:33:13;;;;;;;7.37;6.67;;;;;;;18.17;100.00;101724.88;5032525;28;20535;-40
2022/08/23 04:35:45;;;;;;;6.40;5.90;;;;;;;18.19;100.00;101730.88;5032396;28;20813;-40
2022/08/23 04:38:14;;;;;;;9.67;7.43;;;;;;;18.20;100.00;101727.97;5032599;28;20439;-41
2022/08/23 04:43:38;;;;;;;7.43;6.10;;;;;;;18.23;100.00;101737.47;5032403;28;20536;-40
2022/08/23 04:46:05;;;;;;;7.43;6.80;;;;;;;18.24;100.00;101737.28;5032017;28;20467;-41
2022/08/23 04:48:34;;;;;;;7.13;6.53;;;;;;;18.25;100.00;101744.31;5032294;28;20432;-41
2022/08/23 04:51:02;;;;;;;7.70;7.10;;;;;;;18.27;100.00;101738.69;5031576;28;20497;-40
2022/08/23 04:53:34;;;;;;;7.70;6.73;;;;;;;18.32;100.00;101741.56;5031772;28;20424;-40
2022/08/23 04:56:02;;;;;;;9.80;6.30;;;;;;;18.31;100.00;101745.28;5032427;28;20455;-40
2022/08/23 04:58:30;;;;;;;7.00;6.60;;;;;;;18.35;100.00;101749.22;5031971;28;20435;-40
2022/08/23 05:00:59;;;;;;;7.47;6.83;;;;;;;18.39;100.00;101745.03;5032051;28;20464;-44
2022/08/23 05:03:28;;;;;;;7.13;6.37;;;;;;;18.39;100.00;101745.03;5031824;28;20431;-43
2022/08/23 05:05:56;;;;;;;8.40;7.00;;;;;;;18.43;100.00;101751.59;5031835;28;20428;-43
2022/08/23 05:08:24;;;;;;;6.47;5.97;;;;;;;18.44;100.00;101739.75;5031792;28;20647;-46
2022/08/23 05:10:54;;;;;;;7.37;6.70;;;;;;;18.42;99.81;101746.44;5031507;28;20669;-43
2022/08/23 05:13:21;;;;;;;12.60;6.90;;;;;;;18.44;99.89;101752.44;5031872;28;20491;-42
2022/08/23 05:15:51;;;;;;;6.30;5.80;;;;;;;18.47;100.00;101742.00;5031974;28;20440;-42
2022/08/23 05:18:19;;;;;;;7.33;6.47;;;;;;;18.47;99.37;101742.00;5031967;28;20817;-40
2022/08/23 05:20:46;;;;;;;9.20;6.80;;;;;;;18.47;98.84;101752.00;5031132;28;20837;-43
2022/08/23 05:23:14;;;;;;;6.60;6.20;;;;;;;18.51;99.25;101758.63;5031641;28;20796;-42
2022/08/23 05:25:51;;;;;;;6.70;6.10;;;;;;;18.55;98.84;101744.44;5031736;28;20446;-44
2022/08/23 05:28:22;;;;;;;8.03;6.43;;;;;;;18.63;98.88;101760.38;5031919;28;20427;-44
2022/08/23 05:30:59;;;;;;;8.40;6.13;;;;;;;18.69;98.22;101758.66;5031120;28;20471;-44
2022/08/23 05:33:29;;;;;;;6.80;5.83;;;;;;;18.73;97.95;101759.81;5031554;28;20482;-42
2022/08/23 05:35:57;;;;;;;7.30;6.60;;;;;;;18.77;97.31;101764.56;5031764;28;20486;-41
2022/08/23 05:38:26;;;;;;;6.40;5.80;;;;;;;18.82;96.79;101765.78;5031544;28;20435;-41
2022/08/23 05:40:56;;;;;;;7.33;6.57;;;;;;;18.89;96.68;101759.22;5031039;28;20467;-42
2022/08/23 05:43:28;;;;;;;8.93;7.17;;;;;;;18.99;96.73;101766.81;5031352;28;20434;-42
2022/08/23 05:46:01;;;;;;;6.60;6.10;;;;;;;18.97;94.31;101769.72;5031235;28;20443;-43
2022/08/23 05:48:30;;;;;;;8.50;6.40;;;;;;;19.06;94.64;101767.53;5031758;28;20837;-42
2022/08/23 05:51:09;;;;;;;7.20;6.53;;;;;;;19.14;94.68;101772.66;5030970;28;20467;-44
2022/08/23 05:53:37;;;;;;;11.20;7.60;;;;;;;19.26;94.93;101774.31;5031547;28;20912;-42
2022/08/23 05:56:11;;;;;;;5.83;5.40;;;;;;;19.38;93.74;101785.22;5031332;28;20799;-42
2022/08/23 05:58:40;;;;;;;9.00;6.20;;;;;;;19.45;92.53;101779.72;5030923;28;20428;-43
2022/08/23 06:01:09;;;;;;;6.67;5.93;;;;;;;19.54;92.40;101781.88;5031496;28;20432;-42
2022/08/23 06:03:37;;;;;;;9.53;8.07;;;;;;;19.67;91.54;101783.56;5031306;28;20849;-42
2022/08/23 06:06:05;;;;;;;7.27;6.73;;;;;;;19.81;91.29;101793.13;5031363;28;20831;-40
2022/08/23 06:08:33;;;;;;;10.10;7.20;;;;;;;19.92;90.14;101786.94;5031193;28;20438;-42
2022/08/23 06:11:03;;;;;;;9.73;6.73;;;;;;;20.08;88.13;101788.94;5030717;28;20490;-42
2022/08/23 06:13:31;;;;;;;9.87;6.80;;;;;;;20.20;87.04;101797.06;5031455;28;20439;-44
2022/08/23 06:16:00;;;;;;;8.03;7.30;;;;;;;20.31;86.75;101794.41;5031464;28;20817;-41
2022/08/23 06:18:41;;;;;;;7.60;6.67;;;;;;;20.46;86.26;101798.53;5030871;28;20803;-43
2022/08/23 06:21:11;;;;;;;7.70;6.70;;;;;;;20.52;84.46;101800.31;5031016;28;20438;-44
2022/08/23 06:23:39;;;;;;;10.43;8.50;;;;;;;20.70;82.45;101797.44;5031226;28;20431;-40
2022/08/23 06:26:11;;;;;;;11.53;6.87;;;;;;;20.94;82.92;101805.31;5031299;28;20462;-42
2022/08/23 06:28:38;;;;;;;10.97;7.50;;;;;;;21.35;83.95;101800.75;5030725;28;20428;-43
2022/08/23 06:31:44;;;;;;;12.93;7.43;;;;;;;21.74;78.96;101797.13;5030995;28;20432;-42
2022/08/23 06:34:08;;;;;;;7.00;6.50;;;;;;;21.98;77.04;101798.63;5030794;28;20800;-42
2022/08/23 06:36:37;;;;;;;8.30;6.50;;;;;;;22.19;75.86;101799.00;5034395;28;20451;-42
2022/08/23 06:39:05;;;;;;;7.87;7.17;;;;;;;22.33;73.89;101798.41;5034133;28;20984;-41
2022/08/23 06:41:33;;;;;;;8.00;7.17;;;;;;;22.58;74.15;101797.91;5034628;28;21133;-42
2022/08/23 06:44:01;;;;;;;7.70;7.10;;;;;;;22.80;72.33;101801.53;5034378;28;20442;-42
2022/08/23 06:46:31;;;;;;;8.37;7.77;;;;;;;22.89;71.02;101789.16;5034258;28;21006;-43
2022/08/23 06:49:00;;;;;;;7.17;6.77;;;;;;;23.05;69.90;101793.72;5034180;28;20456;-40
2022/08/23 06:51:29;;;;;;;6.90;6.50;;;;;;;23.27;72.83;101803.72;5034461;28;20438;-43
2022/08/23 06:54:00;;;;;;;7.60;7.07;;;;;;;23.36;71.87;101803.03;5034139;28;20428;-42
2022/08/23 06:56:30;;;;;;;8.57;7.60;;;;;;;23.26;68.67;101796.66;5034219;28;20462;-41
2022/08/23 06:58:58;;;;;;;7.73;7.23;;;;;;;23.10;68.26;101799.19;5033885;28;20485;-43
2022/08/23 07:01:32;;;;;;;6.97;6.53;;;;;;;22.86;67.25;101799.69;5034344;28;20434;-44
2022/08/23 07:04:18;;;;;;;7.53;7.00;;;;;;;22.73;67.38;101805.53;5034026;28;20439;-46
2022/08/23 07:06:46;;;;;;;7.80;7.20;;;;;;;22.63;67.82;101799.91;5034076;28;20463;-41
2022/08/23 07:09:14;;;;;;;8.03;7.33;;;;;;;22.58;68.51;101796.03;5033778;28;20469;-46
2022/08/23 07:11:42;;;;;;;7.07;6.70;;;;;;;22.69;69.19;101801.66;5034173;28;20431;-44
2022/08/23 07:14:13;;;;;;;7.93;7.33;;;;;;;22.60;68.22;101799.34;5033980;28;20447;-41
2022/08/23 07:16:44;;;;;;;8.20;7.60;;;;;;;22.70;68.30;101808.75;5034066;28;20443;-46
2022/08/23 07:19:12;;;;;;;7.20;6.50;;;;;;;22.77;68.47;101804.75;5033329;28;20463;-43
2022/08/23 07:21:41;;;;;;;9.00;7.10;;;;;;;22.76;67.02;101794.16;5033714;28;20443;-41
2022/08/23 07:24:09;;;;;;;7.73;7.10;;;;;;;22.84;67.76;101807.31;5033899;28;20438;-40
2022/08/23 07:26:38;;;;;;;7.10;6.70;;;;;;;22.89;67.14;101801.91;5033814;28;20458;-43
2022/08/23 07:29:06;;;;;;;10.60;7.17;;;;;;;22.93;66.24;101803.06;5033109;28;20459;-44
2022/08/23 07:31:39;;;;;;;7.37;6.67;;;;;;;22.92;65.76;101807.69;5033734;28;20438;-45
2022/08/23 07:34:09;;;;;;;7.97;7.00;;;;;;;22.93;65.74;101800.34;5033381;28;20436;-44
2022/08/23 07:36:39;;;;;;;9.03;7.10;;;;;;;23.00;65.84;101807.22;5033611;28;20468;-41
2022/08/23 07:39:08;;;;;;;8.50;7.50;;;;;;;23.05;65.51;101803.78;5033185;28;20459;-43
2022/08/23 07:41:37;;;;;;;7.80;7.20;;;;;;;23.26;65.81;101813.81;5033791;28;20431;-46
2022/08/23 07:44:08;;;;;;;7.67;7.07;;;;;;;23.47;65.79;101810.28;5033074;28;20959;-43
2022/08/23 07:46:38;;;;;;;8.47;7.87;;;;;;;23.72;65.23;101815.13;5031895;28;20466;-45
2022/08/23 07:49:10;;;;;;;8.20;7.70;;;;;;;23.72;62.89;101817.03;5032908;28;20979;-40
2022/08/23 07:51:40;;;;;;;8.63;7.37;;;;;;;23.85;63.15;101812.00;5033458;28;20435;-44
2022/08/23 07:54:11;;;;;;;7.50;6.90;;;;;;;23.96;61.10;101816.44;5033109;28;20478;-47
2022/08/23 07:56:39;;;;;;;6.83;6.37;;;;;;;24.14;62.33;101805.19;5033089;28;21011;-41
2022/08/23 07:59:07;;;;;;;6.33;5.93;;;;;;;24.51;61.48;101821.53;5032562;28;20459;-42
2022/08/23 08:01:36;;;;;;;6.73;6.23;;;;;;;24.86;59.39;101820.94;5033196;28;20438;-41
2022/08/23 08:04:06;;;;;;;6.47;5.97;;;;;;;25.00;59.66;101827.56;5033108;28;20467;-44
2022/08/23 08:06:39;;;;;;;7.13;5.37;;;;;;;24.93;55.77;101824.28;5033238;28;20808;-43
2022/08/23 08:09:08;;;;;;;4.83;4.43;;;;;;;25.14;59.10;101831.47;5032656;28;20466;-41
2022/08/23 08:11:36;;;;;;;5.20;4.80;;;;;;;25.57;58.26;101837.59;5032928;28;20427;-42
2022/08/23 08:14:06;;;;;;;5.90;5.53;;;;;;;26.19;58.71;101841.00;5032822;28;20475;-43
2022/08/23 08:16:37;;;;;;;6.17;5.57;;;;;;;26.52;55.30;101827.84;5032801;28;20455;-47
2022/08/23 08:19:07;;;;;;;5.00;4.60;;;;;;;26.88;53.76;101830.22;5032580;28;20528;-45
2022/08/23 08:21:38;;;;;;;4.83;4.20;;;;;;;27.29;53.67;101836.34;5032803;28;20442;-43
2022/08/23 08:24:11;;;;;;;5.60;4.27;;;;;;;27.04;51.90;101830.97;5032611;28;20446;-44
2022/08/23 08:26:39;;;;;;;5.00;4.60;;;;;;;27.23;50.30;101836.66;5032769;28;20980;-46
2022/08/23 08:29:09;;;;;;;5.47;4.67;;;;;;;27.26;50.69;101836.09;5032209;28;20458;-48
2022/08/23 08:31:38;;;;;;;4.90;4.50;;;;;;;27.00;48.44;101838.09;5032861;28;20438;-45
2022/08/23 08:34:06;;;;;;;7.57;3.90;;;;;;;26.91;48.22;101840.59;5032451;28;20483;-43
2022/08/23 08:36:38;;;;;;;4.10;3.73;;;;;;;27.08;49.67;101831.25;5032524;28;20452;-42
2022/08/23 08:39:10;;;;;;;4.50;4.03;;;;;;;27.11;47.92;101839.72;5032663;28;20459;-41
2022/08/23 08:41:51;;;;;;;3.93;3.63;;;;;;;26.86;47.02;101837.06;5033357;28;20432;-43
2022/08/23 08:44:40;;;;;;;5.47;4.20;;;;;;;26.78;45.69;101829.41;5033031;28;20438;-43
2022/08/23 08:47:11;;;;;;;4.60;3.80;;;;;;;26.87;47.96;101844.19;5033149;28;20467;-44
2022/08/23 08:49:52;;;;;;;4.23;3.83;;;;;;;27.07;45.80;101837.81;5032351;28;20799;-44
2022/08/23 08:52:25;;;;;;;6.60;3.80;;;;;;;27.27;46.80;101845.97;5032650;28;20432;-41
2022/08/23 08:55:05;;;;;;;3.27;2.97;;;;;;;27.31;44.77;101838.78;5032860;28;20482;-41
2022/08/23 08:57:38;;;;;;;4.70;3.80;;;;;;;27.34;45.08;101839.06;5032200;28;20459;-41
2022/08/23 09:00:12;;;;;;;6.87;4.23;;;;;;;27.32;44.23;101832.22;5032220;28;20860;-43
2022/08/23 09:02:40;;;;;;;4.57;3.47;;;;;;;27.25;44.25;101840.75;5032742;28;20434;-46
2022/08/23 09:05:11;;;;;;;3.90;3.57;;;;;;;27.38;44.70;101844.78;5032621;28;20435;-44
2022/08/23 09:07:50;;;;;;;4.33;3.90;;;;;;;27.48;44.79;101852.97;5032660;28;20458;-41
2022/08/23 09:10:35;;;;;;;4.00;3.70;;;;;;;27.37;43.67;101833.00;5032014;28;20471;-44
2022/08/23 09:13:24;;;;;;;4.80;3.77;;;;;;;27.21;44.43;101836.91;5032440;28;20476;-43
2022/08/23 09:16:02;;;;;;;3.87;3.50;;;;;;;27.46;43.95;101844.22;5032303;28;20443;-43
2022/08/23 09:18:33;;;;;;;4.13;3.73;;;;;;;27.11;44.19;101839.72;5032401;28;20436;-45
2022/08/23 09:21:05;;;;;;;4.63;3.90;;;;;;;27.17;46.09;101841.34;5031690;28;20464;-41
2022/08/23 09:23:40;;;;;;;4.63;4.23;;;;;;;27.26;44.55;101841.56;5031983;28;20426;-44
2022/08/23 09:26:18;;;;;;;4.40;4.10;;;;;;;26.90;45.77;101833.50;5032251;28;20447;-43
2022/08/23 09:28:47;;;;;;;4.10;3.80;;;;;;;27.01;44.97;101831.53;5032206;28;20416;-41
2022/08/23 09:31:36;;;;;;;4.63;4.40;;;;;;;27.04;45.50;101843.84;5032281;28;20805;-43
2022/08/23 09:34:04;;;;;;;8.90;4.40;;;;;;;26.78;44.95;101841.19;5031840;28;21053;-43
2022/08/23 09:36:35;;;;;;;6.33;4.63;;;;;;;26.84;45.46;101842.84;5031891;28;20455;-41
2022/08/23 09:39:06;;;;;;;4.83;4.20;;;;;;;26.93;44.59;101832.94;5031634;28;20473;-43
2022/08/23 09:41:37;;;;;;;13.50;4.30;;;;;;;26.96;46.13;101842.53;5032573;28;20424;-41
2022/08/23 09:44:07;;;;;;;4.80;4.40;;;;;;;26.96;45.43;101838.94;5032070;28;20807;-44
2022/08/23 09:46:37;;;;;;;4.33;4.03;;;;;;;26.70;45.18;101846.41;5031803;28;20509;-41
2022/08/23 09:49:25;;;;;;;4.70;4.33;;;;;;;26.79;44.39;101842.81;5031777;28;20748;-43
2022/08/23 09:51:54;;;;;;;4.77;4.37;;;;;;;26.76;45.18;101840.63;5031948;28;20526;-42
2022/08/23 09:54:28;;;;;;;5.13;4.67;;;;;;;26.97;45.07;101841.41;5031825;28;20472;-43
2022/08/23 09:56:58;;;;;;;4.73;4.20;;;;;;;27.12;44.97;101835.88;5032161;28;20447;-43
2022/08/23 09:59:41;;;;;;;5.43;4.17;;;;;;;26.94;44.07;101833.78;5031257;28;20459;-41
2022/08/23 10:02:15;;;;;;;3.30;3.10;;;;;;;27.18;44.25;101828.47;5031724;28;20419;-43
2022/08/23 10:04:55;;;;;;;4.40;4.00;;;;;;;26.93;43.79;101837.59;5032025;28;20435;-45
2022/08/23 10:07:37;;;;;;;6.60;4.30;;;;;;;26.61;43.62;101824.22;5031999;28;20513;-42
2022/08/23 10:10:18;;;;;;;7.93;3.93;;;;;;;26.80;44.45;101830.78;5032658;28;20992;-41
2022/08/23 10:12:46;;;;;;;5.13;4.67;;;;;;;26.77;43.98;101819.53;5035974;28;20431;-45
2022/08/23 10:15:16;;;;;;;6.10;4.80;;;;;;;26.71;44.82;101826.94;5036206;28;20562;-46
2022/08/23 10:17:51;;;;;;;4.37;3.97;;;;;;;26.79;44.23;101828.31;5035787;28;20559;-43
2022/08/23 10:20:32;;;;;;;5.50;3.60;;;;;;;26.77;43.50;101822.28;5035036;28;20466;-43
2022/08/23 10:23:11;;;;;;;3.63;3.43;;;;;;;27.02;44.35;101816.75;5035617;28;20507;-42
2022/08/23 10:25:45;;;;;;;3.90;3.60;;;;;;;27.22;44.22;101824.06;5035465;28;20439;-43
2022/08/23 10:31:14;;;;;;;5.13;4.13;;;;;;;27.48;42.45;101800.91;5034992;28;20443;-42
2022/08/23 10:33:46;;;;;;;4.23;3.93;;;;;;;27.44;42.81;101805.34;5035241;28;20506;-46
2022/08/23 10:36:20;;;;;;;6.13;5.03;;;;;;;27.37;43.14;101804.81;5035305;28;20444;-45
2022/08/23 10:38:56;;;;;;;4.53;4.30;;;;;;;27.41;41.60;101800.41;5034817;28;20803;-41
2022/08/23 10:41:57;;;;;;;5.33;4.00;;;;;;;27.25;42.02;101798.84;5035637;28;20441;-43
2022/08/23 10:44:34;;;;;;;7.37;3.90;;;;;;;27.31;40.83;101795.78;5002443;28;20956;-43
2022/08/23 10:47:19;;;;;;;3.83;3.63;;;;;;;27.18;40.85;101785.44;5035165;28;20546;-44
2022/08/23 10:49:51;;;;;;;3.27;3.07;;;;;;;27.33;41.21;101798.25;5034529;28;20624;-43
2022/08/23 10:52:23;;;;;;;4.20;3.90;;;;;;;27.52;40.64;101807.47;5035120;28;20427;-43
2022/08/23 10:55:05;;;;;;;5.37;3.53;;;;;;;27.39;39.82;101803.41;5034691;28;20467;-44
2022/08/23 10:57:37;;;;;;;5.17;3.67;;;;;;;27.13;40.82;101801.91;5034610;28;20542;-43
2022/08/23 11:00:08;;;;;;;3.40;3.20;;;;;;;27.44;40.76;101803.44;5034343;28;20467;-44
2022/08/23 11:02:42;;;;;;;3.60;3.40;;;;;;;27.39;40.28;101797.09;5056930;23;20487;-51
2022/08/23 11:05:19;;;;;;;6.43;3.83;;;;;;;27.35;38.75;101805.09;5034457;28;20427;-53
2022/08/23 11:07:58;;;;;;;3.13;2.93;;;;;;;27.53;38.35;101798.16;5034522;28;20436;-53
2022/08/23 11:10:31;;;;;;;4.47;3.80;;;;;;;27.63;39.97;101792.59;5033788;28;20474;-50
2022/08/23 11:13:04;;;;;;;5.47;4.73;;;;;;;27.63;38.84;101795.34;5033745;28;20524;-49
2022/08/23 11:15:41;;;;;;;6.43;4.20;;;;;;;27.68;38.53;101792.59;5034099;28;20475;-52
2022/08/23 11:18:36;;;;;;;3.77;3.60;;;;;;;27.76;38.95;101789.22;5034095;28;20439;-50
2022/08/23 11:21:24;;;;;;;4.10;3.80;;;;;;;28.08;39.30;101796.09;5033270;28;20447;-53
2022/08/23 11:23:54;;;;;;;4.80;4.50;;;;;;;28.14;38.18;101792.22;5021399;28;20443;-54
2022/08/23 11:27:02;;;;;;;4.10;3.80;;;;;;;28.18;37.93;101783.13;5033879;28;20434;-49
2022/08/23 11:29:36;;;;;;;4.37;3.60;;;;;;;28.19;38.29;101792.19;5033264;28;21063;-47
2022/08/23 11:32:19;;;;;;;4.00;3.70;;;;;;;28.21;37.41;101793.53;5033740;28;21006;-53
2022/08/23 11:34:58;;;;;;;4.40;4.20;;;;;;;28.14;36.88;101792.22;5033566;28;20481;-53
2022/08/23 11:37:30;;;;;;;3.93;3.70;;;;;;;28.19;37.30;101784.78;5033738;28;20824;-49
2022/08/23 11:40:08;;;;;;;4.80;3.90;;;;;;;28.39;38.30;101792.78;5033210;28;20468;-54
2022/08/23 11:42:50;;;;;;;4.80;3.93;;;;;;;28.58;38.13;101792.88;5033477;28;20458;-49
2022/08/23 11:45:30;;;;;;;5.30;3.73;;;;;;;28.42;37.71;101786.72;5033682;28;20435;-54
2022/08/23 11:48:12;;;;;;;4.47;3.83;;;;;;;28.48;36.68;101784.75;5033557;28;20438;-54
2022/08/23 11:51:04;;;;;;;3.77;3.57;;;;;;;28.42;37.20;101789.47;5033111;28;20467;-51
2022/08/23 11:53:54;;;;;;;3.90;3.60;;;;;;;28.52;37.09;101794.03;5032732;28;20428;-54
2022/08/23 11:56:38;;;;;;;3.70;3.50;;;;;;;28.47;36.99;101772.13;5033275;28;20481;-52
2022/08/23 11:59:38;;;;;;;4.70;4.30;;;;;;;28.31;36.41;101770.66;5032829;28;21002;-49